createdAt,value
2017-05-26T00:00:03.070Z,15.5
2017-05-26T00:05:03.378Z,15.3
2017-05-26T00:10:03.022Z,15.3
2017-05-26T00:15:02.785Z,15.3
2017-05-26T00:20:02.450Z,15.1
2017-05-26T00:25:03.153Z,15.1
2017-05-26T00:30:03.069Z,15.1
2017-05-26T00:35:02.712Z,15.0
2017-05-26T00:40:02.507Z,14.8
2017-05-26T00:45:03.339Z,14.6
2017-05-26T00:50:03.005Z,14.6
2017-05-26T00:55:02.775Z,14.6
2017-05-26T01:00:02.445Z,14.5
2017-05-26T01:05:03.213Z,14.5
2017-05-26T01:10:17.879Z,14.3
2017-05-26T01:15:02.471Z,14.3
2017-05-26T01:20:03.130Z,14.3
2017-05-26T01:25:02.828Z,14.3
2017-05-26T01:30:03.381Z,14.3
2017-05-26T01:35:03.262Z,14.3
2017-05-26T01:40:03.078Z,14.1
2017-05-26T01:45:02.648Z,14.3
2017-05-26T01:50:03.385Z,14.3
2017-05-26T01:55:03.012Z,14.3
2017-05-26T02:00:02.802Z,13.8
2017-05-26T02:05:02.467Z,13.8
2017-05-26T02:10:03.100Z,13.8
2017-05-26T02:15:02.999Z,13.8
2017-05-26T02:20:02.670Z,13.8
2017-05-26T02:25:03.304Z,13.6
2017-05-26T02:30:03.003Z,13.6
2017-05-26T02:35:02.786Z,13.5
2017-05-26T02:40:02.449Z,13.5
2017-05-26T02:45:03.155Z,13.5
2017-05-26T02:55:26.061Z,13.3
2017-05-26T03:00:02.619Z,13.1
2017-05-26T03:05:03.301Z,13.1
2017-05-26T03:10:03.040Z,13.1
2017-05-26T03:15:02.954Z,13.1
2017-05-26T03:20:02.757Z,12.8
2017-05-26T03:25:02.453Z,12.8
2017-05-26T03:31:06.256Z,12.8
2017-05-26T03:35:02.900Z,12.8
2017-05-26T03:40:02.566Z,12.8
2017-05-26T03:45:03.177Z,13.1
2017-05-26T03:50:02.885Z,12.8
2017-05-26T03:55:02.595Z,13.1
2017-05-26T04:00:03.205Z,13.1
2017-05-26T04:05:02.928Z,13.1
2017-05-26T04:10:02.645Z,13.1
2017-05-26T04:15:03.225Z,13.1
2017-05-26T04:20:02.938Z,13.1
2017-05-26T04:25:02.635Z,13.1
2017-05-26T04:30:02.561Z,13.3
2017-05-26T04:35:03.182Z,13.3
2017-05-26T04:40:02.956Z,13.5
2017-05-26T04:45:02.759Z,13.6
2017-05-26T04:50:03.396Z,13.6
2017-05-26T04:55:03.105Z,13.8
2017-05-26T05:00:02.782Z,13.8
2017-05-26T05:05:02.386Z,14.0
2017-05-26T05:10:03.071Z,14.1
2017-05-26T05:15:02.625Z,14.3
2017-05-26T05:20:03.259Z,14.3
2017-05-26T05:25:02.902Z,14.3
2017-05-26T05:30:02.495Z,14.6
2017-05-26T05:35:03.227Z,14.8
2017-05-26T05:40:02.961Z,15.0
2017-05-26T05:50:03.313Z,15.1
2017-05-26T05:55:02.885Z,15.3
2017-05-26T06:00:02.700Z,15.5
2017-05-26T06:05:02.468Z,15.6
2017-05-26T06:10:03.208Z,15.8
2017-05-26T06:15:02.978Z,16.2
2017-05-26T06:20:02.808Z,16.2
2017-05-26T06:25:02.584Z,16.2
2017-05-26T06:30:03.312Z,16.6
2017-05-26T06:35:03.032Z,16.7
2017-05-26T06:40:02.632Z,17.1
2017-05-26T06:45:03.235Z,17.2
2017-05-26T06:50:02.884Z,17.7
2017-05-26T06:55:02.633Z,17.7
2017-05-26T07:00:03.286Z,17.8
2017-05-26T07:05:03.100Z,18.1
2017-05-26T07:10:02.889Z,18.1
2017-05-26T07:15:02.460Z,18.2
2017-05-26T07:20:03.189Z,18.5
2017-05-26T07:25:02.794Z,18.5
2017-05-26T07:30:02.572Z,18.6
2017-05-26T07:35:03.198Z,19.0
2017-05-26T07:40:02.898Z,19.7
2017-05-26T07:45:02.636Z,20.1
2017-05-26T07:50:03.390Z,20.7
2017-05-26T07:55:03.371Z,21.3
2017-05-26T08:00:03.168Z,21.8
2017-05-26T08:05:02.893Z,22.0
2017-05-26T08:10:02.764Z,21.8
2017-05-26T08:15:03.328Z,21.5
2017-05-26T08:20:03.083Z,22.2
2017-05-26T08:25:02.900Z,23.2
2017-05-26T08:30:02.531Z,23.2
2017-05-26T08:35:03.289Z,24.2
2017-05-26T08:40:02.926Z,24.0
2017-05-26T08:45:02.662Z,24.0
2017-05-26T08:50:03.286Z,24.8
2017-05-26T08:55:03.116Z,23.8
2017-05-26T09:00:03.108Z,25.1
2017-05-26T09:05:03.173Z,23.3
2017-05-26T09:10:02.854Z,25.1
2017-05-26T09:15:03.376Z,24.3
2017-05-26T09:20:02.585Z,24.3
2017-05-26T09:25:03.021Z,26.5
2017-05-26T09:30:03.067Z,25.7
2017-05-26T09:35:02.903Z,26.7
2017-05-26T09:40:03.129Z,26.0
2017-05-26T09:45:03.041Z,25.2
2017-05-26T09:50:03.066Z,27.2
2017-05-26T09:55:02.707Z,26.7
2017-05-26T10:00:02.643Z,25.3
2017-05-26T10:05:03.334Z,27.1
2017-05-26T10:10:03.265Z,27.1
2017-05-26T10:15:03.198Z,27.2
2017-05-26T10:20:02.953Z,27.3
2017-05-26T10:25:02.620Z,28.0
2017-05-26T10:30:02.643Z,26.7
2017-05-26T10:35:02.690Z,27.3
2017-05-26T10:40:02.912Z,27.2
2017-05-26T10:45:02.718Z,28.0
2017-05-26T10:50:02.504Z,27.7
2017-05-26T10:55:03.387Z,29.0
2017-05-26T11:00:02.662Z,26.8
2017-05-26T11:05:03.071Z,28.0
2017-05-26T11:10:03.203Z,27.1
2017-05-26T11:15:02.913Z,29.0
2017-05-26T11:20:03.182Z,27.7
2017-05-26T11:25:02.508Z,27.3
2017-05-26T11:30:03.269Z,26.6
2017-05-26T11:35:02.612Z,27.2
2017-05-26T11:40:03.242Z,28.2
2017-05-26T11:45:03.145Z,28.1
2017-05-26T11:50:02.446Z,29.2
2017-05-26T11:55:02.733Z,30.2
2017-05-26T12:00:02.904Z,30.0
2017-05-26T12:05:02.779Z,30.1
2017-05-26T12:10:03.063Z,29.6
2017-05-26T12:15:03.092Z,29.7
2017-05-26T12:20:03.079Z,29.0
2017-05-26T12:25:02.760Z,28.5
2017-05-26T12:30:03.016Z,30.0
2017-05-26T12:35:03.086Z,30.2
2017-05-26T12:40:02.679Z,29.2
2017-05-26T12:45:03.303Z,30.0
2017-05-26T12:50:03.185Z,30.1
2017-05-26T12:55:02.627Z,30.1
2017-05-26T13:00:03.003Z,29.0
2017-05-26T13:05:02.719Z,29.7
2017-05-26T13:10:03.287Z,28.8
2017-05-26T13:15:02.592Z,29.2
2017-05-26T13:20:03.206Z,30.2
2017-05-26T13:25:02.750Z,29.6
2017-05-26T13:30:03.136Z,30.8
2017-05-26T13:35:02.449Z,29.6
2017-05-26T13:40:03.178Z,29.7
2017-05-26T13:45:02.639Z,29.7
2017-05-26T13:50:03.370Z,31.3
2017-05-26T13:55:03.065Z,31.6
2017-05-26T14:00:02.831Z,32.0
2017-05-26T14:05:02.620Z,30.8
2017-05-26T14:10:03.351Z,30.2
2017-05-26T14:15:02.889Z,30.2
2017-05-26T14:20:02.684Z,30.8
2017-05-26T14:25:03.049Z,30.3
2017-05-26T14:30:02.651Z,30.7
2017-05-26T14:35:02.519Z,31.7
2017-05-26T14:40:03.074Z,31.2
2017-05-26T14:45:02.795Z,30.1
2017-05-26T14:50:03.311Z,31.0
2017-05-26T14:55:02.879Z,31.3
2017-05-26T15:00:03.295Z,30.5
2017-05-26T15:05:02.709Z,30.6
2017-05-26T15:10:02.808Z,30.1
2017-05-26T15:15:02.557Z,30.0
2017-05-26T15:20:03.063Z,30.0
2017-05-26T15:25:02.631Z,30.8
2017-05-26T15:30:03.166Z,30.7
2017-05-26T15:35:02.923Z,31.3
2017-05-26T15:40:02.597Z,31.7
2017-05-26T15:45:02.434Z,29.7
2017-05-26T15:50:02.917Z,30.5
2017-05-26T15:55:03.179Z,31.3
2017-05-26T16:00:02.603Z,29.6
2017-05-26T16:05:02.651Z,29.7
2017-05-26T16:10:02.583Z,29.7
2017-05-26T16:15:03.325Z,29.7
2017-05-26T16:20:02.895Z,31.1
2017-05-26T16:25:03.310Z,30.2
2017-05-26T16:30:02.662Z,30.2
2017-05-26T16:35:02.754Z,29.6
2017-05-26T16:40:03.238Z,29.0
2017-05-26T16:45:03.229Z,29.1
2017-05-26T16:50:03.323Z,29.7
2017-05-26T16:55:02.427Z,29.6
2017-05-26T17:00:02.601Z,29.0
2017-05-26T17:05:02.848Z,29.1
2017-05-26T17:10:03.073Z,28.5
2017-05-26T17:15:02.421Z,30.1
2017-05-26T17:20:02.760Z,28.8
2017-05-26T17:25:03.211Z,28.6
2017-05-26T17:30:02.796Z,29.1
2017-05-26T17:35:03.169Z,29.1
2017-05-26T17:40:03.031Z,28.3
2017-05-26T17:45:03.068Z,28.2
2017-05-26T17:50:02.903Z,27.8
2017-05-26T17:55:02.467Z,27.8
2017-05-26T18:00:02.469Z,28.0
2017-05-26T18:05:02.769Z,27.5
2017-05-26T18:10:03.107Z,27.5
2017-05-26T18:15:02.974Z,27.3
2017-05-26T18:20:02.747Z,27.8
2017-05-26T18:25:03.129Z,27.2
2017-05-26T18:30:02.620Z,27.3
2017-05-26T18:35:02.403Z,26.5
2017-05-26T18:40:02.921Z,26.1
2017-05-26T18:45:02.545Z,25.8
2017-05-26T18:50:02.651Z,25.8
2017-05-26T18:55:03.012Z,24.5
2017-05-26T19:00:02.614Z,24.2
2017-05-26T19:05:03.339Z,24.0
2017-05-26T19:10:02.790Z,23.8
2017-05-26T19:15:02.656Z,23.7
2017-05-26T19:20:02.860Z,23.1
2017-05-26T19:25:02.562Z,23.1
2017-05-26T19:30:03.134Z,22.7
2017-05-26T19:35:03.317Z,22.5
2017-05-26T19:40:03.203Z,22.3
2017-05-26T19:45:02.740Z,21.8
2017-05-26T19:50:03.269Z,21.8
2017-05-26T19:55:02.847Z,21.6
2017-05-26T20:00:03.308Z,21.5
2017-05-26T20:05:03.324Z,21.3
2017-05-26T20:10:02.754Z,21.2
2017-05-26T20:15:02.713Z,21.0
2017-05-26T20:20:02.710Z,20.8
2017-05-26T20:25:02.727Z,21.0
2017-05-26T20:30:02.480Z,21.0
2017-05-26T20:35:02.650Z,20.8
2017-05-26T20:40:02.817Z,20.7
2017-05-26T20:45:03.066Z,20.7
2017-05-26T20:50:02.823Z,20.7
2017-05-26T20:55:02.498Z,20.6
2017-05-26T21:00:02.941Z,20.3
2017-05-26T21:05:02.964Z,20.3
2017-05-26T21:10:02.921Z,20.2
2017-05-26T21:15:03.150Z,20.2
2017-05-26T21:20:03.309Z,20.2
2017-05-26T21:25:02.490Z,20.2
2017-05-26T21:30:03.461Z,20.3
2017-05-26T21:35:03.217Z,20.3
2017-05-26T21:40:02.867Z,20.2
2017-05-26T21:45:02.683Z,20.2
2017-05-26T21:50:02.525Z,20.3
2017-05-26T21:55:03.255Z,20.2
2017-05-26T22:00:02.863Z,20.2
2017-05-26T22:05:02.641Z,20.1
2017-05-26T22:10:03.311Z,20.1
2017-05-26T22:15:02.982Z,20.2
2017-05-26T22:20:02.737Z,20.2
2017-05-26T22:25:02.464Z,20.1
2017-05-26T22:30:03.257Z,20.1
2017-05-26T22:35:03.004Z,20.1
2017-05-26T22:40:02.674Z,20.0
2017-05-26T22:45:03.348Z,20.0
2017-05-26T22:50:03.090Z,20.0
2017-05-26T22:55:02.672Z,19.7
2017-05-26T23:00:02.502Z,19.7
2017-05-26T23:05:03.080Z,19.5
2017-05-26T23:10:02.805Z,19.5
2017-05-26T23:15:02.613Z,19.3
2017-05-26T23:20:03.192Z,19.3
2017-05-26T23:25:02.958Z,19.3
2017-05-26T23:30:02.757Z,19.2
2017-05-26T23:35:02.544Z,19.1
2017-05-26T23:40:03.251Z,19.1
2017-05-26T23:45:02.859Z,19.1
2017-05-26T23:50:02.566Z,19.1
2017-05-26T23:55:03.323Z,19.1
